Time;durP1;ratioP1;P1;durP2;ratioP2;P2;SDS_P1;SDS_P2;PMS_P1;PMS_P2;Temp;Humidity;BMP_temperature;BMP_pressure;BME280_temperature;BME280_humidity;BME280_pressure;Samples;Min_cycle;Max_cycle;Signal;HPM_P1;HPM_P2
2023/07/17 00:00:12;;;;;;;9.18;4.43;;;21.00;99.60;;;;;;5067256;28;20197;-85
2023/07/17 00:02:39;;;;;;;9.52;5.00;;;21.00;99.90;;;;;;5064433;28;20194;-84
2023/07/17 00:05:07;;;;;;;6.70;4.32;;;20.90;99.90;;;;;;5067080;28;20217;-88
2023/07/17 00:07:34;;;;;;;7.10;4.38;;;20.90;99.90;;;;;;5067101;28;20193;-83
2023/07/17 00:10:01;;;;;;;7.65;4.47;;;20.80;99.90;;;;;;5066828;28;20564;-85
2023/07/17 00:12:28;;;;;;;6.50;4.80;;;20.80;99.90;;;;;;5067380;28;20211;-87
2023/07/17 00:14:57;;;;;;;7.18;4.88;;;20.80;99.90;;;;;;5066860;28;20197;-86
2023/07/17 00:17:24;;;;;;;6.03;4.85;;;20.80;99.90;;;;;;5066218;28;20193;-84
2023/07/17 00:19:55;;;;;;;4.78;4.28;;;20.80;99.90;;;;;;5069662;28;20198;-86
2023/07/17 00:22:22;;;;;;;7.53;4.55;;;20.80;99.90;;;;;;5069057;28;20206;-83
2023/07/17 00:24:49;;;;;;;6.32;4.63;;;20.80;99.90;;;;;;5068465;28;20250;-86
2023/07/17 00:27:16;;;;;;;5.93;4.38;;;20.80;99.90;;;;;;5064846;28;20216;-84
2023/07/17 00:29:44;;;;;;;7.72;4.53;;;20.80;99.90;;;;;;5063732;28;20197;-85
2023/07/17 00:32:12;;;;;;;6.00;4.63;;;20.80;99.90;;;;;;5066172;28;20190;-86
2023/07/17 00:34:40;;;;;;;5.10;4.05;;;20.80;99.90;;;;;;5062521;28;20208;-84
2023/07/17 00:37:07;;;;;;;5.03;4.50;;;20.80;99.90;;;;;;5061615;28;20666;-86
2023/07/17 00:39:34;;;;;;;5.85;4.30;;;20.90;99.90;;;;;;5070170;28;20204;-84
2023/07/17 00:42:03;;;;;;;7.65;4.97;;;21.00;99.90;;;;;;5060708;28;20642;-85
2023/07/17 00:44:30;;;;;;;4.97;4.07;;;21.00;99.90;;;;;;5063612;28;20201;-84
2023/07/17 00:46:57;;;;;;;5.05;4.47;;;21.00;99.90;;;;;;5074810;28;20304;-86
2023/07/17 00:49:28;;;;;;;6.68;4.00;;;21.20;99.90;;;;;;5068691;28;20210;-85
2023/07/17 00:51:57;;;;;;;7.35;4.38;;;21.20;99.90;;;;;;5070210;28;20636;-86
2023/07/17 00:54:25;;;;;;;5.80;4.70;;;21.10;99.90;;;;;;5068154;28;20204;-86
2023/07/17 00:56:53;;;;;;;8.85;4.82;;;21.00;99.90;;;;;;5069800;28;20207;-84
2023/07/17 00:59:20;;;;;;;5.82;4.60;;;21.00;99.90;;;;;;5059488;28;20207;-84
2023/07/17 01:01:48;;;;;;;5.45;4.85;;;20.90;99.90;;;;;;5064746;28;20194;-84
2023/07/17 01:04:15;;;;;;;7.43;4.90;;;21.00;99.90;;;;;;5066412;28;20283;-87
2023/07/17 01:06:43;;;;;;;6.68;4.68;;;20.90;99.90;;;;;;5079468;28;20213;-84
2023/07/17 01:09:12;;;;;;;6.18;4.85;;;20.80;99.90;;;;;;5073458;28;20203;-84
2023/07/17 01:11:40;;;;;;;5.75;4.78;;;20.70;99.90;;;;;;5067236;28;20197;-85
2023/07/17 01:14:15;;;;;;;8.65;4.70;;;20.70;99.90;;;;;;5059876;28;20202;-85
2023/07/17 01:16:42;;;;;;;7.93;5.32;;;20.60;99.90;;;;;;5066044;28;20251;-87
2023/07/17 01:19:09;;;;;;;5.93;5.18;;;20.60;99.90;;;;;;5064988;28;20803;-85
2023/07/17 01:21:39;;;;;;;7.90;5.13;;;20.60;99.90;;;;;;5059799;28;20225;-85
2023/07/17 01:24:08;;;;;;;6.07;5.13;;;20.60;99.90;;;;;;5068175;28;20575;-86
2023/07/17 01:26:35;;;;;;;8.15;4.90;;;20.50;99.90;;;;;;5066034;28;20260;-84
2023/07/17 01:29:02;;;;;;;11.40;4.63;;;20.50;99.90;;;;;;5064476;28;20602;-86
2023/07/17 01:31:29;;;;;;;7.68;4.50;;;20.40;99.90;;;;;;5071415;28;20205;-84
2023/07/17 01:33:56;;;;;;;4.80;4.40;;;20.40;99.90;;;;;;5084910;28;20197;-84
2023/07/17 01:36:25;;;;;;;4.78;4.18;;;20.40;99.90;;;;;;5061541;28;20202;-86
2023/07/17 01:38:54;;;;;;;5.72;4.57;;;20.50;99.90;;;;;;5056220;28;20202;-83
2023/07/17 01:41:23;;;;;;;6.10;4.65;;;20.50;99.90;;;;;;5067900;28;20247;-84
2023/07/17 01:43:50;;;;;;;7.93;4.72;;;20.40;99.90;;;;;;5063094;28;20216;-85
2023/07/17 01:46:17;;;;;;;5.72;4.40;;;20.40;99.90;;;;;;5062586;28;20225;-86
2023/07/17 01:48:44;;;;;;;5.88;4.35;;;20.30;99.90;;;;;;5070346;28;20193;-86
2023/07/17 01:51:11;;;;;;;6.22;4.63;;;20.20;99.90;;;;;;5064040;28;20745;-86
2023/07/17 01:53:38;;;;;;;6.25;4.68;;;20.20;99.90;;;;;;5061760;28;20198;-86
2023/07/17 01:56:05;;;;;;;5.47;4.70;;;20.20;99.90;;;;;;5061684;28;20654;-84
2023/07/17 01:58:34;;;;;;;4.53;4.10;;;20.20;99.90;;;;;;5059194;28;20201;-86
2023/07/17 02:01:01;;;;;;;5.97;4.25;;;20.30;99.90;;;;;;5066096;28;20209;-86
2023/07/17 02:03:28;;;;;;;6.60;5.00;;;20.50;99.90;;;;;;5064621;28;20243;-84
2023/07/17 02:05:56;;;;;;;6.35;4.75;;;20.50;99.90;;;;;;5072646;28;20220;-84
2023/07/17 02:08:23;;;;;;;5.53;4.80;;;20.50;99.90;;;;;;5066301;28;20833;-84
2023/07/17 02:10:51;;;;;;;5.88;4.90;;;20.40;99.90;;;;;;5060950;28;20193;-87
2023/07/17 02:13:18;;;;;;;7.25;4.85;;;20.40;99.90;;;;;;5068616;28;20654;-86
2023/07/17 02:15:47;;;;;;;7.20;5.35;;;20.40;99.90;;;;;;5069776;28;20228;-85
2023/07/17 02:18:14;;;;;;;7.07;5.25;;;20.40;99.90;;;;;;5064937;28;20228;-84
2023/07/17 02:20:42;;;;;;;6.35;4.88;;;20.30;99.90;;;;;;5064411;28;20676;-86
2023/07/17 02:23:07;;;;;;;5.72;4.80;;;20.40;99.90;;;;;;5061392;28;20193;-84
2023/07/17 02:25:34;;;;;;;6.25;4.90;;;20.50;99.90;;;;;;5071886;28;20308;-83
2023/07/17 02:28:01;;;;;;;7.97;5.25;;;20.50;99.90;;;;;;5070419;28;20205;-86
2023/07/17 02:30:28;;;;;;;5.82;4.78;;;20.50;99.90;;;;;;5065345;28;20866;-84
2023/07/17 02:32:57;;;;;;;5.93;5.32;;;20.50;99.90;;;;;;5067204;28;20207;-86
2023/07/17 02:35:24;;;;;;;7.57;5.30;;;20.50;99.90;;;;;;5063150;28;20445;-85
2023/07/17 02:37:51;;;;;;;7.47;5.88;;;20.40;99.90;;;;;;5062169;28;20193;-85
2023/07/17 02:40:18;;;;;;;8.35;5.53;;;20.50;99.90;;;;;;5071501;28;20206;-84
2023/07/17 02:42:45;;;;;;;6.85;5.28;;;20.50;99.90;;;;;;5063398;28;20286;-86
2023/07/17 02:45:12;;;;;;;8.73;5.72;;;20.50;99.90;;;;;;5070907;28;20224;-86
2023/07/17 02:47:39;;;;;;;7.82;5.47;;;20.50;99.90;;;;;;5066907;28;20193;-84
2023/07/17 02:50:09;;;;;;;6.85;4.75;;;20.50;99.90;;;;;;5073901;28;20197;-85
2023/07/17 02:52:36;;;;;;;6.80;4.82;;;20.60;99.90;;;;;;5082139;28;20302;-86
2023/07/17 02:55:04;;;;;;;5.38;4.88;;;20.60;99.90;;;;;;5063824;28;20611;-86
2023/07/17 02:57:33;;;;;;;7.45;4.72;;;20.50;99.90;;;;;;5071894;28;20197;-86
2023/07/17 03:00:00;;;;;;;5.07;4.57;;;20.60;99.90;;;;;;5069907;28;20197;-86
2023/07/17 03:02:27;;;;;;;5.35;4.63;;;20.70;99.90;;;;;;5067977;28;20201;-84
2023/07/17 03:04:54;;;;;;;5.00;4.53;;;20.60;99.90;;;;;;5072424;28;20892;-83
2023/07/17 03:07:22;;;;;;;5.45;4.70;;;20.50;99.90;;;;;;5067159;28;20225;-86
2023/07/17 03:09:49;;;;;;;5.65;4.72;;;20.40;99.90;;;;;;5067656;28;20201;-85
2023/07/17 03:12:18;;;;;;;7.65;4.85;;;20.40;99.90;;;;;;5073308;28;20213;-84
2023/07/17 03:14:45;;;;;;;9.20;5.25;;;20.30;99.90;;;;;;5066968;28;20288;-84
2023/07/17 03:17:12;;;;;;;7.53;5.00;;;20.30;99.90;;;;;;5060298;28;20199;-85
2023/07/17 03:19:39;;;;;;;5.80;5.22;;;20.20;99.90;;;;;;5066466;28;20194;-85
2023/07/17 03:22:06;;;;;;;9.07;5.60;;;20.20;99.90;;;;;;5066195;28;20206;-86
2023/07/17 03:24:35;;;;;;;5.43;4.93;;;20.20;99.90;;;;;;5063369;28;20201;-84
2023/07/17 03:27:03;;;;;;;6.32;5.40;;;20.20;99.90;;;;;;5059845;28;20809;-85
2023/07/17 03:29:30;;;;;;;5.90;4.70;;;20.30;99.90;;;;;;5068686;28;20201;-86
2023/07/17 03:31:57;;;;;;;5.50;4.80;;;20.40;99.90;;;;;;5071682;28;20197;-86
2023/07/17 03:34:24;;;;;;;5.28;4.30;;;20.40;99.90;;;;;;5068746;28;20198;-86
2023/07/17 03:36:51;;;;;;;5.50;4.88;;;20.40;99.90;;;;;;5063677;28;20197;-85
2023/07/17 03:39:18;;;;;;;12.10;6.78;;;20.40;99.90;;;;;;5070016;28;20201;-86
2023/07/17 03:41:47;;;;;;;10.82;6.35;;;20.20;99.90;;;;;;5069908;28;20875;-87
2023/07/17 03:44:13;;;;;;;12.65;7.15;;;20.10;99.90;;;;;;5074419;28;20198;-83
2023/07/17 03:46:40;;;;;;;11.15;6.35;;;20.00;99.90;;;;;;5069579;28;20239;-84
2023/07/17 03:49:07;;;;;;;13.02;8.15;;;19.80;99.90;;;;;;5071382;28;20199;-85
2023/07/17 03:51:34;;;;;;;13.65;7.75;;;19.60;99.90;;;;;;5067057;28;20213;-87
2023/07/17 03:54:01;;;;;;;11.65;7.78;;;19.50;99.90;;;;;;5068573;28;20673;-88
2023/07/17 03:56:29;;;;;;;13.38;7.50;;;19.50;99.90;;;;;;5054735;28;20640;-85
2023/07/17 03:58:57;;;;;;;15.10;7.70;;;19.50;99.90;;;;;;5075311;28;20544;-85
2023/07/17 04:01:24;;;;;;;8.95;6.72;;;19.40;99.90;;;;;;5066596;28;20255;-87
2023/07/17 04:03:51;;;;;;;8.40;7.18;;;19.40;99.90;;;;;;5065255;28;20225;-86
2023/07/17 04:06:18;;;;;;;8.95;6.85;;;19.30;99.90;;;;;;5060129;28;20682;-86
2023/07/17 04:08:45;;;;;;;9.45;7.05;;;19.20;99.90;;;;;;5073526;28;20201;-88
2023/07/17 04:11:15;;;;;;;10.77;7.32;;;19.20;99.90;;;;;;5066206;28;20634;-88
2023/07/17 04:13:42;;;;;;;10.90;7.03;;;19.20;99.90;;;;;;5073708;28;20318;-86
2023/07/17 04:16:11;;;;;;;9.88;6.82;;;19.20;99.90;;;;;;5068169;28;20201;-89
2023/07/17 04:18:42;;;;;;;9.95;6.68;;;19.20;99.90;;;;;;5072615;28;20217;-91
2023/07/17 04:21:09;;;;;;;11.38;7.45;;;19.30;99.90;;;;;;5071822;28;20224;-91
2023/07/17 04:23:36;;;;;;;8.93;6.78;;;19.30;99.90;;;;;;5067200;28;20202;-92
2023/07/17 04:26:03;;;;;;;10.48;6.85;;;19.30;99.90;;;;;;5062318;28;20212;-90
2023/07/17 04:28:30;;;;;;;8.60;6.90;;;19.20;99.90;;;;;;5061886;28;20206;-91
2023/07/17 04:30:57;;;;;;;11.77;7.22;;;19.20;99.90;;;;;;5062843;28;20205;-91
2023/07/17 04:33:25;;;;;;;10.07;7.60;;;19.10;99.90;;;;;;5070460;28;20272;-90
2023/07/17 04:35:52;;;;;;;8.77;6.22;;;19.10;99.90;;;;;;5066906;28;20193;-92
2023/07/17 04:38:19;;;;;;;8.48;6.78;;;19.10;99.90;;;;;;5071950;28;20198;-88
2023/07/17 04:40:46;;;;;;;7.35;6.20;;;19.00;99.90;;;;;;5072655;28;20212;-88
2023/07/17 04:43:12;;;;;;;8.30;6.63;;;19.00;99.90;;;;;;5067094;28;20201;-86
2023/07/17 04:45:42;;;;;;;9.02;6.07;;;19.00;99.90;;;;;;5063703;28;20559;-86
2023/07/17 04:48:09;;;;;;;9.02;6.63;;;19.00;99.90;;;;;;5061909;28;20189;-85
2023/07/17 04:50:38;;;;;;;9.52;6.07;;;19.10;99.90;;;;;;5064796;28;20190;-85
2023/07/17 04:53:05;;;;;;;6.63;5.60;;;19.20;99.90;;;;;;5062498;28;20212;-87
2023/07/17 04:55:31;;;;;;;8.10;6.82;;;19.10;99.90;;;;;;5062404;28;20664;-87
2023/07/17 04:57:59;;;;;;;7.45;6.50;;;19.10;99.90;;;;;;5071104;28;20192;-88
2023/07/17 05:00:25;;;;;;;9.15;6.10;;;19.20;99.90;;;;;;5067830;28;20194;-88
2023/07/17 05:02:53;;;;;;;9.82;6.18;;;19.20;99.90;;;;;;5057790;28;20204;-87
2023/07/17 05:05:20;;;;;;;9.80;6.50;;;19.20;99.90;;;;;;5070262;28;20202;-85
2023/07/17 05:07:49;;;;;;;8.02;6.35;;;19.30;99.90;;;;;;5063323;28;20231;-86
2023/07/17 05:10:18;;;;;;;7.53;6.53;;;19.20;99.90;;;;;;5063485;28;20636;-87
2023/07/17 05:12:44;;;;;;;8.23;6.65;;;19.10;99.90;;;;;;5061392;28;21597;-87
2023/07/17 05:15:12;;;;;;;8.88;6.78;;;19.10;99.90;;;;;;5062945;28;20679;-86
2023/07/17 05:17:39;;;;;;;10.60;7.47;;;19.10;99.90;;;;;;5071197;28;20218;-85
2023/07/17 05:20:07;;;;;;;8.95;6.82;;;19.10;99.90;;;;;;5060484;28;20193;-87
2023/07/17 05:22:34;;;;;;;11.63;6.85;;;19.10;99.90;;;;;;5064728;28;20201;-86
2023/07/17 05:25:03;;;;;;;9.15;6.88;;;19.00;99.90;;;;;;5067064;28;20209;-87
2023/07/17 05:27:30;;;;;;;9.00;7.57;;;19.10;99.90;;;;;;5064603;28;20227;-87
2023/07/17 05:29:57;;;;;;;10.13;7.60;;;19.10;99.90;;;;;;5047123;28;20194;-87
2023/07/17 05:32:24;;;;;;;9.10;7.45;;;19.10;99.90;;;;;;5069510;28;20262;-86
2023/07/17 05:34:53;;;;;;;10.70;7.75;;;19.20;99.90;;;;;;5067352;28;20593;-85
2023/07/17 05:37:20;;;;;;;11.75;7.45;;;19.20;99.90;;;;;;5072003;28;20198;-90
2023/07/17 05:39:47;;;;;;;10.25;8.02;;;19.20;99.90;;;;;;5066487;28;20201;-90
2023/07/17 05:42:15;;;;;;;8.02;7.07;;;19.30;99.90;;;;;;5066416;28;20203;-91
2023/07/17 05:44:42;;;;;;;8.23;7.25;;;19.30;99.90;;;;;;5074083;28;20599;-90
2023/07/17 05:47:10;;;;;;;9.70;8.02;;;19.50;99.90;;;;;;5074877;28;20685;-88
2023/07/17 05:49:37;;;;;;;8.85;7.65;;;19.50;99.90;;;;;;5075224;28;20237;-89
2023/07/17 05:52:04;;;;;;;8.95;8.02;;;19.50;99.90;;;;;;5064458;28;20212;-88
2023/07/17 05:54:31;;;;;;;10.85;7.90;;;19.60;99.90;;;;;;5081209;28;20192;-88
2023/07/17 05:56:58;;;;;;;10.02;7.85;;;19.70;99.90;;;;;;5071380;28;20201;-88
2023/07/17 05:59:27;;;;;;;11.35;7.70;;;19.80;99.90;;;;;;5063196;28;20193;-88
2023/07/17 06:01:54;;;;;;;13.90;7.72;;;19.80;99.90;;;;;;5057393;28;20256;-86
2023/07/17 06:04:20;;;;;;;8.40;6.78;;;19.80;99.90;;;;;;5069169;28;20194;-87
2023/07/17 06:06:48;;;;;;;8.55;6.05;;;19.90;99.90;;;;;;5062664;28;20222;-87
2023/07/17 06:09:14;;;;;;;8.18;6.38;;;19.90;99.90;;;;;;5068745;28;20209;-90
2023/07/17 06:11:41;;;;;;;10.60;5.50;;;20.00;99.90;;;;;;5064914;28;20193;-86
2023/07/17 06:14:08;;;;;;;7.53;4.93;;;20.20;99.90;;;;;;5074860;28;20202;-87
2023/07/17 06:16:36;;;;;;;8.40;4.90;;;20.20;99.90;;;;;;5068082;28;20204;-86
2023/07/17 06:19:04;;;;;;;6.43;4.68;;;20.30;99.90;;;;;;5071107;28;20572;-87
2023/07/17 06:21:41;;;;;;;5.53;4.15;;;20.50;99.90;;;;;;5070237;28;20207;-86
2023/07/17 06:29:59;;;;;;;9.38;3.90;;;20.40;97.20;;;;;;5064700;28;21269;-86
2023/07/17 06:40:54;;;;;;;4.80;3.58;;;20.10;98.10;;;;;;5062246;28;20253;-87
2023/07/17 06:43:21;;;;;;;7.82;3.83;;;19.90;98.10;;;;;;5070344;28;20292;-88
2023/07/17 06:45:49;;;;;;;7.40;4.18;;;19.80;98.00;;;;;;5069784;28;20205;-88
2023/07/17 06:48:17;;;;;;;5.75;3.40;;;19.60;98.00;;;;;;5068774;28;20220;-89
2023/07/17 06:50:45;;;;;;;8.77;4.03;;;19.50;98.40;;;;;;5068456;28;20193;-88
2023/07/17 06:53:12;;;;;;;7.70;4.22;;;19.30;99.10;;;;;;5058257;28;20213;-89
2023/07/17 06:55:39;;;;;;;9.75;4.93;;;19.30;99.00;;;;;;5064007;28;20205;-87
2023/07/17 06:58:08;;;;;;;6.63;4.50;;;19.30;99.70;;;;;;5066355;28;20205;-87
2023/07/17 07:00:35;;;;;;;7.38;4.53;;;19.30;99.90;;;;;;5061054;28;20274;-89
2023/07/17 07:03:02;;;;;;;6.72;4.13;;;19.30;99.90;;;;;;5047242;28;20552;-88
2023/07/17 07:05:30;;;;;;;7.38;4.18;;;19.50;99.90;;;;;;5070540;28;20668;-87
2023/07/17 07:07:58;;;;;;;7.57;4.00;;;19.80;99.70;;;;;;5065203;28;20214;-89
2023/07/17 07:10:24;;;;;;;8.20;4.18;;;20.00;99.40;;;;;;5061349;28;20209;-87
2023/07/17 07:12:51;;;;;;;8.02;3.85;;;20.00;98.90;;;;;;5068281;28;20204;-88
2023/07/17 07:15:18;;;;;;;8.50;4.53;;;20.00;98.50;;;;;;5064997;28;20289;-88
2023/07/17 07:17:47;;;;;;;9.43;3.90;;;20.00;98.10;;;;;;5046034;28;20727;-87
2023/07/17 07:20:14;;;;;;;12.45;8.65;;;20.20;98.60;;;;;;5067617;28;20997;-87
2023/07/17 07:22:43;;;;;;;46.78;41.92;;;20.50;97.20;;;;;;5065892;28;20264;-90
2023/07/17 07:25:11;;;;;;;12.43;10.52;;;20.60;96.30;;;;;;5076809;28;20231;-87
2023/07/17 07:30:34;;;;;;;13.43;9.52;;;20.80;96.20;;;;;;5065133;28;20209;-87
2023/07/17 07:39:47;;;;;;;29.50;23.83;;;20.90;95.50;;;;;;5115385;27;20278;-88
2023/07/17 07:45:16;;;;;;;20.02;17.85;;;21.00;95.30;;;;;;5125559;27;20242;-86
2023/07/17 07:47:43;;;;;;;20.73;17.40;;;21.40;95.10;;;;;;5123299;27;20225;-86
2023/07/17 07:50:11;;;;;;;9.93;7.55;;;21.90;93.40;;;;;;5112858;27;20200;-87
2023/07/17 07:52:40;;;;;;;6.32;3.90;;;22.40;91.60;;;;;;5130758;27;20203;-87
2023/07/17 07:55:07;;;;;;;6.93;4.00;;;22.80;84.90;;;;;;5119510;27;20684;-87
2023/07/17 07:57:34;;;;;;;8.18;5.45;;;22.70;85.70;;;;;;5124395;27;20648;-86
2023/07/17 08:00:02;;;;;;;6.05;4.00;;;22.90;88.20;;;;;;5127636;27;20643;-87
2023/07/17 08:02:29;;;;;;;7.70;4.82;;;23.10;80.40;;;;;;5114743;27;20196;-87
2023/07/17 08:04:55;;;;;;;5.20;3.72;;;22.80;81.00;;;;;;5121004;27;20208;-87
2023/07/17 08:07:22;;;;;;;8.38;5.25;;;22.80;82.80;;;;;;5131459;27;20195;-86
2023/07/17 08:09:53;;;;;;;73.35;64.57;;;22.50;83.20;;;;;;5125606;27;20203;-86
2023/07/17 08:12:20;;;;;;;63.50;57.42;;;22.40;83.80;;;;;;5121744;27;20202;-85
2023/07/17 08:14:47;;;;;;;10.75;4.07;;;22.20;87.70;;;;;;5125670;27;20246;-86
2023/07/17 08:17:14;;;;;;;8.27;4.15;;;22.10;80.80;;;;;;5162761;27;20552;-89
2023/07/17 08:19:42;;;;;;;5.85;4.15;;;22.10;78.80;;;;;;5127172;27;20211;-86
2023/07/17 08:22:09;;;;;;;6.20;3.20;;;22.10;82.30;;;;;;5127547;27;20194;-86
2023/07/17 08:24:36;;;;;;;4.55;3.33;;;22.20;79.10;;;;;;5128650;27;20215;-87
2023/07/17 08:27:05;;;;;;;6.10;3.33;;;22.30;76.40;;;;;;5124399;27;20196;-87
2023/07/17 08:29:32;;;;;;;5.68;4.28;;;22.80;80.90;;;;;;5111226;28;20199;-85
2023/07/17 08:31:59;;;;;;;6.03;3.88;;;23.60;73.30;;;;;;5126212;27;20209;-88
2023/07/17 08:34:28;;;;;;;7.15;4.70;;;25.10;58.10;;;;;;5121075;28;20635;-87
2023/07/17 08:36:55;;;;;;;6.03;3.97;;;26.90;37.40;;;;;;5125315;27;20195;-86
2023/07/17 08:39:22;;;;;;;8.27;4.10;;;28.10;30.80;;;;;;5117736;27;20202;-88
2023/07/17 08:41:50;;;;;;;6.55;3.80;;;29.40;24.90;;;;;;5124440;27;20561;-87
2023/07/17 08:44:20;;;;;;;6.35;4.00;;;30.20;18.50;;;;;;5136121;27;20195;-88
2023/07/17 08:46:48;;;;;;;10.65;5.28;;;30.20;18.70;;;;;;5122713;27;20199;-87
2023/07/17 08:49:17;;;;;;;6.43;3.80;;;31.10;17.20;;;;;;5110122;27;20233;-88
2023/07/17 08:51:47;;;;;;;7.40;4.47;;;31.50;15.00;;;;;;5107622;28;20210;-88
2023/07/17 08:54:16;;;;;;;5.45;4.03;;;31.70;16.00;;;;;;5102258;28;20199;-86
2023/07/17 08:56:44;;;;;;;7.03;4.30;;;30.60;17.00;;;;;;5107801;28;20219;-89
2023/07/17 08:59:11;;;;;;;7.72;4.07;;;29.20;20.20;;;;;;5111528;27;20191;-87
2023/07/17 09:01:40;;;;;;;6.38;4.18;;;28.10;24.90;;;;;;5106417;28;20200;-87
2023/07/17 09:04:07;;;;;;;5.78;3.90;;;28.40;21.20;;;;;;5106317;27;20285;-87
2023/07/17 09:06:34;;;;;;;5.25;3.50;;;28.30;20.20;;;;;;5110202;27;20203;-88
2023/07/17 09:09:02;;;;;;;4.55;4.00;;;28.80;16.00;;;;;;5111299;27;20647;-88
2023/07/17 09:11:29;;;;;;;6.85;3.92;;;29.80;16.50;;;;;;5116858;27;20830;-86
2023/07/17 09:13:57;;;;;;;4.80;4.15;;;31.00;16.10;;;;;;5102890;27;20191;-87
2023/07/17 09:16:26;;;;;;;6.97;4.10;;;31.80;12.80;;;;;;5117193;27;20237;-87
2023/07/17 09:59:46;;;;;;;5.95;4.70;;;31.40;15.90;;;;;;5102675;28;20184;-87
2023/07/17 10:02:52;;;;;;;4.78;4.38;;;32.40;14.40;;;;;;5100926;27;20199;-88
2023/07/17 10:08:28;;;;;;;5.22;4.43;;;30.80;13.70;;;;;;5100165;27;20208;-89
2023/07/17 10:10:55;;;;;;;6.35;4.30;;;29.90;19.90;;;;;;5114040;27;20204;-87
2023/07/17 10:19:25;;;;;;;8.10;4.80;;;30.40;16.80;;;;;;5112299;27;20233;-89
2023/07/17 10:21:57;;;;;;;6.10;4.50;;;30.00;16.60;;;;;;5120412;27;20662;-88
2023/07/17 10:24:25;;;;;;;5.15;3.92;;;29.00;16.20;;;;;;5094823;28;20211;-88
2023/07/17 10:26:52;;;;;;;5.43;3.65;;;28.40;17.20;;;;;;5110756;28;20290;-87
2023/07/17 10:29:31;;;;;;;5.32;4.22;;;28.50;20.50;;;;;;5104869;27;20210;-88
2023/07/17 10:31:58;;;;;;;5.97;4.00;;;29.40;16.30;;;;;;5088286;28;20212;-87
2023/07/17 10:34:48;;;;;;;5.97;4.38;;;29.80;16.50;;;;;;5108614;27;20207;-88
2023/07/17 10:37:40;;;;;;;5.07;3.90;;;29.60;16.40;;;;;;5106419;27;20215;-86
2023/07/17 10:40:09;;;;;;;5.25;3.83;;;29.20;17.90;;;;;;5108453;28;20283;-90
2023/07/17 10:42:36;;;;;;;4.75;3.72;;;29.70;14.60;;;;;;5114831;27;20191;-88
2023/07/17 10:45:10;;;;;;;5.60;3.55;;;29.80;16.50;;;;;;5101383;27;20198;-88
2023/07/17 10:47:37;;;;;;;4.07;3.60;;;29.90;16.10;;;;;;5089096;28;20196;-87
2023/07/17 10:50:04;;;;;;;5.15;3.45;;;30.50;13.90;;;;;;5104231;28;20203;-88
2023/07/17 10:52:35;;;;;;;3.97;3.60;;;30.80;15.70;;;;;;5114305;27;20199;-88
2023/07/17 10:55:05;;;;;;;4.30;3.63;;;30.90;15.50;;;;;;5097255;28;20207;-88
2023/07/17 10:57:33;;;;;;;5.18;4.13;;;31.30;12.50;;;;;;5103544;27;20202;-87
2023/07/17 11:00:00;;;;;;;8.25;4.00;;;31.10;16.00;;;;;;5105654;27;20318;-89
2023/07/17 11:02:27;;;;;;;5.88;3.72;;;29.90;13.90;;;;;;5092863;27;20240;-86
2023/07/17 11:04:57;;;;;;;4.82;4.15;;;29.40;15.70;;;;;;5103587;28;20211;-86
2023/07/17 11:07:26;;;;;;;4.85;3.53;;;29.20;15.40;;;;;;5097319;27;20192;-86
2023/07/17 11:13:37;;;;;;;5.32;3.70;;;29.20;16.20;;;;;;5107638;27;20624;-89
2023/07/17 11:16:08;;;;;;;3.97;3.58;;;28.80;16.10;;;;;;5086813;28;20195;-87
2023/07/17 11:18:45;;;;;;;6.72;4.18;;;29.00;16.10;;;;;;5105017;28;20220;-89
2023/07/17 11:21:13;;;;;;;4.70;3.47;;;28.40;16.20;;;;;;5099673;28;20183;-89
2023/07/17 11:23:49;;;;;;;7.00;3.65;;;28.20;17.50;;;;;;5101157;28;20561;-86
2023/07/17 11:26:18;;;;;;;3.75;3.30;;;28.40;15.90;;;;;;5099822;28;20195;-86
2023/07/17 11:28:48;;;;;;;4.38;3.53;;;28.10;19.20;;;;;;5102945;28;20199;-85
2023/07/17 11:31:19;;;;;;;3.95;3.55;;;27.80;19.00;;;;;;5098398;28;20245;-83
2023/07/17 11:33:57;;;;;;;5.72;3.20;;;27.70;21.70;;;;;;5094787;28;20192;-90
2023/07/17 11:36:25;;;;;;;11.00;3.35;;;27.80;18.40;;;;;;5106071;28;20248;-87
2023/07/17 11:38:52;;;;;;;4.78;3.63;;;28.10;20.60;;;;;;5102170;28;20210;-87
2023/07/17 11:41:19;;;;;;;6.18;3.53;;;28.10;18.70;;;;;;5092179;28;20199;-85
2023/07/17 11:43:56;;;;;;;5.78;3.97;;;27.90;18.80;;;;;;5098351;28;20250;-85
2023/07/17 11:46:24;;;;;;;5.60;3.53;;;28.30;17.20;;;;;;5104821;28;20252;-85
2023/07/17 11:48:54;;;;;;;5.93;3.50;;;27.90;18.40;;;;;;5097484;28;20196;-86
2023/07/17 11:51:25;;;;;;;5.68;3.90;;;27.60;19.10;;;;;;5094896;28;20199;-85
2023/07/17 11:53:54;;;;;;;5.45;3.70;;;27.20;20.80;;;;;;5104744;28;20196;-84
2023/07/17 11:56:21;;;;;;;7.97;3.70;;;26.90;21.10;;;;;;5097377;28;20249;-83
2023/07/17 11:58:53;;;;;;;6.30;3.75;;;26.70;21.10;;;;;;5106238;28;20199;-84
2023/07/17 12:01:21;;;;;;;6.28;3.97;;;26.90;21.90;;;;;;5100404;28;20188;-83
2023/07/17 12:03:48;;;;;;;5.72;3.72;;;27.40;19.50;;;;;;5092022;28;20200;-83
2023/07/17 12:06:15;;;;;;;4.40;4.00;;;27.80;19.20;;;;;;5104261;28;20658;-82
2023/07/17 12:08:42;;;;;;;4.50;3.83;;;28.00;18.10;;;;;;5092229;28;20207;-83
2023/07/17 12:11:09;;;;;;;6.38;3.40;;;28.10;18.20;;;;;;5104139;28;20199;-87
2023/07/17 12:13:36;;;;;;;9.05;3.80;;;28.30;18.90;;;;;;5101992;28;20219;-88
2023/07/17 12:18:45;;;;;;;5.78;3.65;;;29.20;16.20;;;;;;5097388;28;20216;-90
2023/07/17 12:21:12;;;;;;;6.03;3.50;;;29.50;16.40;;;;;;5102628;28;20187;-87
2023/07/17 12:23:39;;;;;;;4.57;3.45;;;29.40;16.40;;;;;;5096216;28;20196;-88
2023/07/17 12:26:06;;;;;;;4.43;3.78;;;29.30;17.00;;;;;;5077890;28;20200;-87
2023/07/17 12:28:33;;;;;;;8.70;3.72;;;29.20;16.20;;;;;;5070971;28;20200;-85
2023/07/17 12:31:00;;;;;;;3.97;3.60;;;28.90;16.10;;;;;;5073217;28;20203;-87
2023/07/17 12:33:36;;;;;;;6.32;4.25;;;28.70;16.00;;;;;;5082247;28;20219;-90
2023/07/17 12:36:03;;;;;;;10.13;4.43;;;28.80;16.00;;;;;;5090062;28;20196;-89
2023/07/17 12:38:30;;;;;;;4.90;3.88;;;29.00;16.10;;;;;;5089677;28;20203;-89
2023/07/17 12:40:57;;;;;;;4.78;4.28;;;29.40;16.30;;;;;;5092879;28;20207;-89
2023/07/17 12:43:24;;;;;;;9.77;4.20;;;29.20;17.60;;;;;;5082036;28;20637;-87
2023/07/17 12:45:51;;;;;;;5.72;3.80;;;29.20;17.10;;;;;;5081266;28;20201;-88
2023/07/17 12:48:18;;;;;;;8.63;4.20;;;29.30;16.30;;;;;;5079679;28;20212;-87
2023/07/17 12:50:48;;;;;;;6.45;3.90;;;29.00;16.10;;;;;;5086083;28;20200;-86
2023/07/17 12:53:15;;;;;;;5.25;4.20;;;28.80;16.00;;;;;;5080576;28;20227;-88
2023/07/17 12:55:42;;;;;;;5.70;3.95;;;29.00;17.20;;;;;;5090219;28;20239;-89
2023/07/17 12:58:10;;;;;;;4.53;3.70;;;29.40;16.30;;;;;;5091644;28;20204;-87
2023/07/17 13:00:37;;;;;;;5.50;3.80;;;29.60;15.60;;;;;;5090349;28;20209;-88
2023/07/17 13:03:04;;;;;;;8.07;4.05;;;29.70;16.50;;;;;;5088144;28;20227;-87
2023/07/17 13:05:31;;;;;;;8.43;4.13;;;29.60;16.40;;;;;;5091335;28;20275;-88
2023/07/17 13:07:59;;;;;;;5.07;4.07;;;29.50;16.40;;;;;;5087735;28;20200;-87
2023/07/17 13:10:26;;;;;;;5.32;4.20;;;29.80;15.70;;;;;;5078099;28;20571;-87
2023/07/17 13:12:53;;;;;;;5.47;3.92;;;29.80;14.60;;;;;;5094051;28;20219;-89
2023/07/17 13:15:20;;;;;;;4.70;3.75;;;29.40;16.40;;;;;;5087405;28;20200;-87
2023/07/17 13:17:47;;;;;;;5.85;3.92;;;29.10;16.20;;;;;;5092533;28;20220;-89
2023/07/17 13:20:14;;;;;;;5.85;4.03;;;29.10;16.20;;;;;;5079914;28;20536;-89
2023/07/17 13:22:42;;;;;;;7.43;3.80;;;29.00;16.20;;;;;;5086115;28;20192;-89
2023/07/17 13:25:12;;;;;;;6.60;4.22;;;28.80;16.00;;;;;;5081456;28;20200;-89
2023/07/17 13:27:39;;;;;;;7.15;4.03;;;28.30;16.70;;;;;;5086079;28;20429;-90
2023/07/17 13:30:07;;;;;;;4.30;3.70;;;28.10;17.90;;;;;;5087075;28;20245;-90
2023/07/17 13:32:35;;;;;;;6.78;3.90;;;28.10;17.90;;;;;;5090590;28;20269;-90
2023/07/17 13:35:02;;;;;;;7.13;4.40;;;28.00;17.30;;;;;;5087064;28;20205;-89
2023/07/17 13:37:29;;;;;;;6.88;3.70;;;28.10;18.50;;;;;;5091777;28;20286;-86
2023/07/17 13:39:56;;;;;;;4.85;3.75;;;28.10;18.50;;;;;;5089979;28;20204;-87
2023/07/17 13:42:24;;;;;;;6.85;3.65;;;28.20;18.00;;;;;;5087539;28;20631;-87
2023/07/17 13:44:51;;;;;;;5.65;4.35;;;28.30;18.00;;;;;;5077324;28;20200;-88
2023/07/17 13:47:18;;;;;;;5.63;4.30;;;28.20;17.50;;;;;;5081563;28;20678;-85
2023/07/17 13:49:45;;;;;;;4.45;4.05;;;28.00;17.10;;;;;;5076927;28;20197;-83
2023/07/17 13:52:11;;;;;;;5.68;4.15;;;27.70;18.80;;;;;;5077561;28;20200;-87
2023/07/17 13:54:40;;;;;;;4.72;3.95;;;27.30;19.40;;;;;;5084459;28;20203;-89
2023/07/17 13:57:07;;;;;;;7.40;5.65;;;27.30;19.20;;;;;;5080725;28;20660;-84
2023/07/17 13:59:36;;;;;;;6.35;4.93;;;27.30;19.80;;;;;;5085782;28;20200;-83
2023/07/17 14:02:03;;;;;;;5.72;4.72;;;27.20;21.70;;;;;;5081829;28;20208;-85
2023/07/17 14:04:30;;;;;;;6.80;4.55;;;27.00;22.50;;;;;;5080781;28;20644;-85
2023/07/17 14:06:58;;;;;;;5.53;4.82;;;26.90;23.70;;;;;;5086369;28;20605;-85
2023/07/17 14:09:25;;;;;;;6.00;4.75;;;26.90;21.20;;;;;;5081257;28;20216;-87
2023/07/17 14:11:52;;;;;;;5.13;4.10;;;26.90;21.70;;;;;;5087683;28;20561;-86